Time;durP1;ratioP1;P1;durP2;ratioP2;P2;SDS_P1;SDS_P2;PMS_P1;PMS_P2;Temp;Humidity;BMP_temperature;BMP_pressure;BME280_temperature;BME280_humidity;BME280_pressure;Samples;Min_cycle;Max_cycle;Signal;HPM_P1;HPM_P2
2022/01/03 00:01:33;;;;;;;7.00;2.47;;;;;;;26.37;34.81;96669.69;5006410;28;20749;-62
2022/01/03 00:03:59;;;;;;;7.95;2.58;;;;;;;26.37;34.81;96665.28;5005816;28;20990;-62
2022/01/03 00:06:24;;;;;;;10.18;2.72;;;;;;;26.37;34.60;96670.56;5011605;28;20039;-61
2022/01/03 00:08:49;;;;;;;6.22;2.80;;;;;;;26.35;34.72;96662.75;5007975;28;20060;-62
2022/01/03 00:11:19;;;;;;;11.65;2.50;;;;;;;26.34;34.48;96661.06;5009102;28;20030;-61
2022/01/03 00:13:46;;;;;;;6.15;2.00;;;;;;;26.34;34.34;96640.06;4991437;28;20629;-61
2022/01/03 00:16:11;;;;;;;8.88;2.75;;;;;;;26.34;34.52;96640.06;4993304;28;20029;-64
2022/01/03 00:18:37;;;;;;;6.35;2.35;;;;;;;26.34;34.34;96634.78;5006677;28;20079;-62
2022/01/03 00:21:03;;;;;;;7.95;2.25;;;;;;;26.34;34.27;96639.19;5005978;28;20029;-62
2022/01/03 00:23:29;;;;;;;7.05;2.28;;;;;;;26.33;34.27;96638.38;4993962;28;20029;-63
2022/01/03 00:26:00;;;;;;;5.68;2.10;;;;;;;26.32;34.30;96631.41;5005200;28;20116;-61
2022/01/03 00:28:36;;;;;;;7.25;2.22;;;;;;;26.33;34.22;96638.38;5007011;28;20706;-62
2022/01/03 00:31:02;;;;;;;6.13;2.40;;;;;;;26.33;34.40;96633.09;5008391;28;20063;-61
2022/01/03 00:33:28;;;;;;;5.30;2.20;;;;;;;26.31;34.04;96640.22;5008235;28;20087;-61
2022/01/03 00:35:59;;;;;;;10.27;2.55;;;;;;;26.31;34.08;96650.72;5011598;28;20871;-62
2022/01/03 00:38:28;;;;;;;8.50;2.40;;;;;;;26.30;34.14;96654.28;5008522;28;20083;-61
2022/01/03 00:40:54;;;;;;;7.10;2.15;;;;;;;26.30;34.24;96643.78;5008099;28;20088;-61
2022/01/03 00:43:19;;;;;;;10.55;2.53;;;;;;;26.30;34.07;96643.78;5008019;28;20476;-62
2022/01/03 00:45:44;;;;;;;7.43;2.22;;;;;;;26.30;34.18;96649.03;4993740;28;20044;-62
2022/01/03 00:48:10;;;;;;;12.95;2.38;;;;;;;26.29;34.21;96646.50;5006107;28;21025;-61
2022/01/03 00:50:36;;;;;;;8.50;2.10;;;;;;;26.30;33.99;96649.03;5005908;28;20033;-61
2022/01/03 00:53:02;;;;;;;7.45;2.08;;;;;;;26.30;34.09;96648.19;5007396;28;20100;-61
2022/01/03 00:55:27;;;;;;;10.38;2.20;;;;;;;26.30;34.15;96649.03;5001765;28;20033;-61
2022/01/03 00:57:59;;;;;;;6.88;2.10;;;;;;;26.28;34.06;96655.31;5007573;28;20040;-61
2022/01/03 01:00:24;;;;;;;6.57;1.73;;;;;;;26.29;33.98;96659.63;5010293;28;20034;-61
2022/01/03 01:03:17;;;;;;;5.07;1.75;;;;;;;26.28;34.01;96648.25;4991319;28;20712;-61
2022/01/03 01:05:44;;;;;;;6.47;1.77;;;;;;;26.29;34.09;96663.13;4991141;28;20420;-60
2022/01/03 01:08:09;;;;;;;4.45;1.98;;;;;;;26.30;34.04;96654.28;5007967;28;20026;-61
2022/01/03 01:10:36;;;;;;;4.03;2.05;;;;;;;26.29;34.09;96657.88;4989763;28;20033;-61
2022/01/03 01:13:02;;;;;;;4.72;1.80;;;;;;;26.27;34.04;96662.34;5006735;28;20038;-62
2022/01/03 01:15:28;;;;;;;4.70;2.22;;;;;;;26.28;33.98;96645.63;5011068;28;20063;-61
2022/01/03 01:17:54;;;;;;;4.95;2.00;;;;;;;26.29;34.16;96668.38;5007299;28;20038;-61
2022/01/03 01:20:20;;;;;;;4.35;1.77;;;;;;;26.28;34.10;96658.78;5006318;28;20055;-61
2022/01/03 01:22:46;;;;;;;4.43;2.00;;;;;;;26.29;33.98;96657.88;5009297;28;20499;-62
2022/01/03 01:27:50;;;;;;;4.25;1.48;;;;;;;26.30;34.03;96645.56;5006891;28;20160;-61
2022/01/03 01:30:26;;;;;;;6.75;1.77;;;;;;;26.29;33.89;96667.50;5008142;28;20029;-61
2022/01/03 01:33:00;;;;;;;2.83;1.55;;;;;;;26.28;34.14;96666.66;5007060;28;20120;-61
2022/01/03 01:35:25;;;;;;;4.18;1.90;;;;;;;26.28;34.03;96677.16;5007694;28;20029;-61
2022/01/03 01:37:53;;;;;;;6.18;1.70;;;;;;;26.27;33.99;96675.47;4990510;28;20029;-62
2022/01/03 01:40:18;;;;;;;3.33;1.40;;;;;;;26.27;33.93;96685.97;5009334;28;20033;-61
2022/01/03 01:42:46;;;;;;;4.10;1.70;;;;;;;26.26;33.94;96679.03;5010709;28;20033;-61
2022/01/03 01:45:12;;;;;;;5.63;1.70;;;;;;;26.26;34.05;96691.31;4991509;28;20033;-62
2022/01/03 01:47:38;;;;;;;3.25;1.50;;;;;;;26.25;33.74;96697.47;4993796;28;20041;-61
2022/01/03 01:50:04;;;;;;;3.42;1.42;;;;;;;26.25;33.96;96693.09;5007352;28;20537;-61
2022/01/03 01:52:30;;;;;;;6.53;1.85;;;;;;;26.24;33.77;96686.16;5008448;28;20029;-60
2022/01/03 01:55:00;;;;;;;4.07;1.60;;;;;;;26.25;33.84;96687.84;4989404;28;20034;-62
2022/01/03 01:57:50;;;;;;;4.28;1.40;;;;;;;26.25;33.52;96695.72;5005027;28;20026;-62
2022/01/03 02:00:16;;;;;;;5.72;1.95;;;;;;;26.25;33.78;96687.84;5007584;28;20033;-62
2022/01/03 02:03:19;;;;;;;3.95;1.58;;;;;;;26.22;33.74;96690.63;5004805;28;20064;-62
2022/01/03 02:06:04;;;;;;;2.25;1.20;;;;;;;26.22;33.81;96695.88;5006207;28;20049;-62
2022/01/03 02:08:38;;;;;;;6.82;1.88;;;;;;;26.23;33.67;96689.69;5010379;28;20026;-61
2022/01/03 02:11:08;;;;;;;4.13;1.48;;;;;;;26.22;33.61;96682.75;4996513;28;20032;-65
2022/01/03 02:13:33;;;;;;;3.22;1.40;;;;;;;26.21;33.67;96683.69;4992676;28;20037;-62
2022/01/03 02:16:03;;;;;;;5.40;1.88;;;;;;;26.22;33.69;96686.22;4993106;28;20040;-62
2022/01/03 02:18:29;;;;;;;7.72;1.70;;;;;;;26.21;33.79;96692.38;5005985;28;20021;-62
2022/01/03 02:20:55;;;;;;;11.60;1.30;;;;;;;26.23;33.79;96694.94;5008583;28;20043;-60
2022/01/03 02:23:20;;;;;;;2.67;1.27;;;;;;;26.20;33.79;96689.88;5007853;28;20037;-61
2022/01/03 02:25:45;;;;;;;3.90;1.40;;;;;;;26.23;33.92;96694.94;5008972;28;20065;-62
2022/01/03 02:28:11;;;;;;;2.75;1.10;;;;;;;26.23;33.81;96706.31;5007700;28;20041;-62
2022/01/03 02:30:37;;;;;;;3.50;1.70;;;;;;;26.22;33.87;96703.75;5006096;28;20030;-62
2022/01/03 02:33:03;;;;;;;2.88;1.35;;;;;;;26.24;33.75;96709.78;5005185;28;20037;-62
2022/01/03 02:35:30;;;;;;;4.35;1.40;;;;;;;26.25;33.71;96702.72;5007641;28;20037;-62
2022/01/03 02:37:55;;;;;;;4.90;1.60;;;;;;;26.24;33.64;96701.91;5007579;28;20033;-62
2022/01/03 02:40:21;;;;;;;7.03;1.60;;;;;;;26.23;33.75;96702.81;4988182;28;20129;-62
2022/01/03 02:42:47;;;;;;;3.67;1.13;;;;;;;26.23;33.79;96697.56;5005138;28;20025;-62
2022/01/03 02:45:17;;;;;;;3.13;1.30;;;;;;;26.22;33.80;96688.00;4989339;28;20022;-61
2022/01/03 02:47:45;;;;;;;5.30;1.55;;;;;;;26.23;33.78;96689.69;4997542;28;20053;-62
2022/01/03 02:50:11;;;;;;;4.90;1.75;;;;;;;26.21;33.82;96691.56;5009468;28;20094;-63
2022/01/03 02:52:36;;;;;;;4.32;1.40;;;;;;;26.23;33.72;96689.69;4987459;28;20957;-61
2022/01/03 02:55:03;;;;;;;3.67;1.48;;;;;;;26.22;33.83;96691.47;5006670;28;20025;-61
2022/01/03 02:57:38;;;;;;;5.55;1.70;;;;;;;26.22;33.69;96688.84;5007923;28;20029;-61
2022/01/03 03:00:04;;;;;;;3.03;1.70;;;;;;;26.23;33.79;96692.31;5023408;28;20854;-61
2022/01/03 03:02:30;;;;;;;1.85;1.02;;;;;;;26.17;33.76;96676.91;5006620;28;20622;-61
2022/01/03 03:04:57;;;;;;;3.88;1.40;;;;;;;26.22;33.73;96693.25;5008084;28;20032;-61
2022/01/03 03:07:24;;;;;;;6.25;1.70;;;;;;;26.22;33.65;96682.75;4990692;28;20453;-61
2022/01/03 03:09:49;;;;;;;3.40;1.40;;;;;;;26.22;33.79;96693.25;5005582;28;20099;-60
2022/01/03 03:12:15;;;;;;;2.85;1.35;;;;;;;26.21;33.91;96697.66;5005368;28;20026;-61
2022/01/03 03:14:40;;;;;;;2.78;1.40;;;;;;;26.21;33.59;96697.66;5003875;28;20037;-61
2022/01/03 03:17:06;;;;;;;4.18;1.55;;;;;;;26.19;33.66;96694.28;5003512;28;20646;-61
2022/01/03 03:19:31;;;;;;;5.78;1.85;;;;;;;26.21;33.77;96687.13;5004678;28;20021;-61
2022/01/03 03:21:56;;;;;;;2.70;1.10;;;;;;;26.22;33.71;96688.00;5000123;28;20033;-61
2022/01/03 03:24:22;;;;;;;4.63;1.27;;;;;;;26.22;33.80;96695.88;4999257;28;20017;-62
2022/01/03 03:26:47;;;;;;;4.60;1.27;;;;;;;26.21;33.78;96691.56;4999479;28;20485;-62
2022/01/03 03:29:13;;;;;;;2.67;1.17;;;;;;;26.22;33.83;96701.13;4999885;28;20071;-62
2022/01/03 03:31:38;;;;;;;3.47;1.27;;;;;;;26.21;33.70;96691.56;5001602;28;20025;-61
2022/01/03 03:34:05;;;;;;;3.67;1.40;;;;;;;26.21;33.64;96702.06;4997105;28;20030;-62
2022/01/03 03:36:30;;;;;;;6.95;1.60;;;;;;;26.21;33.72;96702.91;5000206;28;20471;-61
2022/01/03 03:38:55;;;;;;;3.92;1.10;;;;;;;26.23;33.72;96705.44;5001067;28;21572;-64
2022/01/03 03:41:21;;;;;;;3.67;1.73;;;;;;;26.19;33.64;96691.66;5002691;28;20026;-62
2022/01/03 03:43:46;;;;;;;3.67;1.50;;;;;;;26.20;33.46;96692.50;5004371;28;20065;-62
2022/01/03 03:46:11;;;;;;;3.20;1.42;;;;;;;26.20;33.55;96689.88;5005247;28;20029;-61
2022/01/03 03:48:38;;;;;;;3.40;1.27;;;;;;;26.17;33.54;96685.66;5004465;28;20567;-61
2022/01/03 03:51:03;;;;;;;4.15;0.98;;;;;;;26.20;33.52;96684.63;5003771;28;20399;-61
2022/01/03 03:53:29;;;;;;;3.92;1.38;;;;;;;26.19;33.53;96691.66;5003366;28;20033;-61
2022/01/03 03:55:54;;;;;;;4.05;1.13;;;;;;;26.19;33.45;96696.03;5004864;28;20033;-61
2022/01/03 03:58:20;;;;;;;3.08;1.20;;;;;;;26.19;33.50;96706.53;5004321;28;20076;-61
2022/01/03 04:00:45;;;;;;;2.33;0.93;;;;;;;26.19;33.39;96696.03;5001559;28;20435;-62
2022/01/03 04:03:10;;;;;;;2.25;1.20;;;;;;;26.19;33.63;96698.66;5005423;28;20785;-62
2022/01/03 04:05:36;;;;;;;4.03;1.13;;;;;;;26.19;33.59;96698.66;5007502;28;20021;-61
2022/01/03 04:08:01;;;;;;;4.20;1.10;;;;;;;26.19;33.52;96706.53;5004351;28;20026;-62
2022/01/03 04:10:27;;;;;;;5.65;1.35;;;;;;;26.18;33.65;96703.09;4987900;28;20088;-61
2022/01/03 04:12:52;;;;;;;2.92;1.27;;;;;;;26.18;33.58;96694.34;5004647;28;20026;-62
2022/01/03 04:15:17;;;;;;;2.60;1.38;;;;;;;26.19;33.70;96682.91;5003725;28;20029;-62
2022/01/03 04:17:43;;;;;;;2.13;1.02;;;;;;;26.19;33.67;96682.91;5002635;28;20028;-61
2022/01/03 04:20:09;;;;;;;1.58;0.98;;;;;;;26.20;33.64;96692.50;5003672;28;20022;-62
2022/01/03 04:22:34;;;;;;;4.30;1.58;;;;;;;26.21;33.69;96688.94;5005016;28;20029;-62
2022/01/03 04:25:00;;;;;;;2.35;1.10;;;;;;;26.15;33.75;96670.88;5002014;28;20128;-62
2022/01/03 04:27:25;;;;;;;1.85;0.98;;;;;;;26.20;33.56;96679.38;5004937;28;20030;-62
2022/01/03 04:29:51;;;;;;;3.20;0.90;;;;;;;26.18;33.62;96682.09;5003261;28;20068;-62
2022/01/03 04:32:16;;;;;;;6.13;1.50;;;;;;;26.19;33.60;96681.13;5002908;28;20029;-60
2022/01/03 04:34:42;;;;;;;7.00;1.70;;;;;;;26.19;33.64;96682.91;5002300;28;20029;-61
2022/01/03 04:37:08;;;;;;;1.88;1.02;;;;;;;26.19;33.52;96688.16;5001356;28;20060;-62
2022/01/03 04:39:33;;;;;;;2.88;1.20;;;;;;;26.19;33.54;96675.03;5006770;28;20407;-63
2022/01/03 04:41:58;;;;;;;2.97;1.17;;;;;;;26.19;33.57;96677.66;5005044;28;20064;-62
2022/01/03 04:44:24;;;;;;;2.63;0.95;;;;;;;26.19;33.62;96698.66;5008666;28;20071;-61
2022/01/03 04:46:51;;;;;;;3.20;1.30;;;;;;;26.17;33.63;96690.03;4986153;28;20914;-62
2022/01/03 04:49:16;;;;;;;2.08;0.93;;;;;;;26.17;33.67;96687.41;5008994;28;20212;-61
2022/01/03 04:51:42;;;;;;;3.15;1.15;;;;;;;26.19;33.77;96696.03;5013940;28;20122;-62
2022/01/03 04:54:07;;;;;;;2.85;1.23;;;;;;;26.19;33.55;96698.66;5012125;28;20037;-61
2022/01/03 04:56:33;;;;;;;3.42;1.30;;;;;;;26.18;33.55;96696.97;5020817;28;20041;-61
2022/01/03 04:59:00;;;;;;;2.90;1.10;;;;;;;26.18;33.57;96702.22;5012725;28;20025;-63
2022/01/03 05:01:25;;;;;;;3.42;1.10;;;;;;;26.18;33.50;96699.59;5001162;28;20999;-62
2022/01/03 05:03:52;;;;;;;3.22;1.25;;;;;;;26.18;33.60;96712.75;5001353;28;20714;-61
2022/01/03 05:06:18;;;;;;;3.28;1.38;;;;;;;26.18;33.45;96702.22;5001259;28;20140;-61
2022/01/03 05:08:43;;;;;;;5.60;1.20;;;;;;;26.16;33.51;96699.69;5022134;28;20727;-61
2022/01/03 05:11:09;;;;;;;2.60;1.30;;;;;;;26.18;33.51;96705.72;5007278;28;20048;-60
2022/01/03 05:13:34;;;;;;;2.60;1.00;;;;;;;26.18;33.48;96699.59;4999913;28;20130;-61
2022/01/03 05:16:00;;;;;;;4.53;1.35;;;;;;;26.17;33.64;96690.03;5002201;28;20043;-61
2022/01/03 05:18:25;;;;;;;6.13;1.00;;;;;;;26.17;33.56;96701.41;4998572;28;20411;-62
2022/01/03 05:20:51;;;;;;;3.25;1.20;;;;;;;26.17;33.62;96703.19;5000756;28;20026;-61
2022/01/03 05:23:17;;;;;;;6.30;1.30;;;;;;;26.17;33.54;96705.78;5002649;28;20072;-62
2022/01/03 05:25:42;;;;;;;3.33;1.27;;;;;;;26.17;33.59;96711.06;4999888;28;21090;-64
2022/01/03 05:28:08;;;;;;;4.18;0.93;;;;;;;26.17;33.55;96705.78;5002012;28;20028;-61
2022/01/03 05:30:33;;;;;;;2.78;1.20;;;;;;;26.16;33.56;96697.06;4984055;28;22314;-62
2022/01/03 05:32:59;;;;;;;2.45;0.90;;;;;;;26.15;33.43;96691.88;4997526;28;20140;-61
2022/01/03 05:35:24;;;;;;;2.78;1.10;;;;;;;26.15;33.50;96692.75;5002374;28;20033;-61
2022/01/03 05:37:49;;;;;;;5.80;1.40;;;;;;;26.10;33.44;96679.88;4998577;28;20034;-62
2022/01/03 05:40:15;;;;;;;4.47;1.20;;;;;;;26.16;33.59;96697.06;4997251;28;20103;-61
2022/01/03 05:42:41;;;;;;;3.75;0.98;;;;;;;26.15;33.64;96708.50;5001347;28;20029;-62
2022/01/03 05:45:07;;;;;;;4.35;1.55;;;;;;;26.15;33.73;96705.88;5000212;28;20029;-61
2022/01/03 05:47:33;;;;;;;4.15;1.20;;;;;;;26.14;33.55;96704.19;5000803;28;20629;-62
2022/01/03 05:49:59;;;;;;;2.05;1.15;;;;;;;26.15;33.59;96715.53;4997599;28;20591;-59
2022/01/03 05:52:24;;;;;;;2.17;1.08;;;;;;;26.15;33.67;96718.16;4985025;28;20034;-60
2022/01/03 05:54:52;;;;;;;3.60;0.88;;;;;;;26.15;33.63;96723.41;4995838;28;20872;-62
2022/01/03 05:57:17;;;;;;;2.78;1.20;;;;;;;26.15;33.43;96728.66;4998370;28;20091;-62
2022/01/03 05:59:43;;;;;;;4.05;0.90;;;;;;;26.14;33.58;96725.22;4998585;28;20045;-60
2022/01/03 06:02:08;;;;;;;4.30;1.23;;;;;;;26.14;33.46;96726.97;4999206;28;20048;-61
2022/01/03 06:07:18;;;;;;;3.33;1.30;;;;;;;26.15;33.62;96724.25;5001511;28;20075;-60
2022/01/03 06:09:43;;;;;;;7.68;1.48;;;;;;;26.14;33.65;96717.31;4999800;28;20029;-59
2022/01/03 06:12:08;;;;;;;2.22;1.00;;;;;;;26.14;33.69;96738.34;4997512;28;20031;-61
2022/01/03 06:14:34;;;;;;;2.70;0.90;;;;;;;26.15;33.66;96723.41;4998096;28;20041;-59
2022/01/03 06:16:59;;;;;;;1.77;0.90;;;;;;;26.14;33.79;96719.94;4999360;28;20111;-60
2022/01/03 06:19:26;;;;;;;2.42;0.90;;;;;;;26.14;33.78;96729.59;4997659;28;20033;-61
2022/01/03 06:21:51;;;;;;;1.88;1.00;;;;;;;26.14;33.70;96724.34;5000000;28;20458;-60
2022/01/03 06:24:17;;;;;;;2.42;0.82;;;;;;;26.12;33.82;96720.97;4993701;28;20088;-62
2022/01/03 06:26:43;;;;;;;2.35;1.00;;;;;;;26.13;33.80;96720.91;5001454;28;20033;-61
2022/01/03 06:29:09;;;;;;;2.55;1.15;;;;;;;26.14;33.91;96719.09;5004948;28;20084;-60
2022/01/03 06:31:35;;;;;;;2.38;1.05;;;;;;;26.14;33.81;96722.56;4997299;28;20029;-62
2022/01/03 06:34:00;;;;;;;0.88;0.55;;;;;;;26.13;33.91;96714.78;4996376;28;20034;-61
2022/01/03 06:36:26;;;;;;;2.60;0.90;;;;;;;26.13;33.91;96714.78;5000489;28;20396;-62
2022/01/03 06:38:51;;;;;;;2.72;0.80;;;;;;;26.14;33.96;96711.22;4996226;28;21110;-62
2022/01/03 06:41:17;;;;;;;1.67;0.85;;;;;;;26.13;33.85;96709.53;4992119;28;20029;-60
2022/01/03 06:43:42;;;;;;;2.45;1.00;;;;;;;26.13;33.98;96710.38;5001226;28;20075;-60
2022/01/03 06:46:08;;;;;;;2.92;0.73;;;;;;;26.14;34.02;96705.97;4999688;28;20119;-60
2022/01/03 06:48:34;;;;;;;2.63;0.95;;;;;;;26.14;33.88;96711.22;4998618;28;20120;-62
2022/01/03 06:50:59;;;;;;;1.70;0.90;;;;;;;26.13;33.93;96699.88;4997707;28;21001;-62
2022/01/03 06:53:24;;;;;;;2.38;0.80;;;;;;;26.13;34.05;96709.53;4996050;28;20545;-61
2022/01/03 06:55:50;;;;;;;2.17;0.90;;;;;;;26.13;33.98;96712.16;4997819;28;20038;-60
2022/01/03 06:58:15;;;;;;;2.10;0.80;;;;;;;26.12;34.04;96713.09;4981369;28;20604;-60
2022/01/03 07:00:41;;;;;;;1.42;0.60;;;;;;;26.14;33.75;96711.22;4998594;28;20683;-60
2022/01/03 07:03:06;;;;;;;1.40;0.63;;;;;;;26.13;34.06;96714.78;4993721;28;20056;-61
2022/01/03 07:05:32;;;;;;;1.67;0.75;;;;;;;26.13;34.08;96720.03;5000132;28;20021;-62
2022/01/03 07:07:59;;;;;;;1.80;0.70;;;;;;;26.13;34.01;96725.28;5013182;28;20148;-62
2022/01/03 07:10:24;;;;;;;1.77;0.88;;;;;;;26.14;34.09;96721.72;5001897;28;20049;-60
2022/01/03 07:12:51;;;;;;;1.08;0.75;;;;;;;26.14;34.15;96711.22;4999230;28;20042;-62
2022/01/03 07:20:46;;;;;;;1.27;0.60;;;;;;;26.13;34.06;96722.66;4999168;28;20036;-62
2022/01/03 07:23:12;;;;;;;2.40;0.80;;;;;;;26.10;34.12;96708.75;4983122;28;20029;-62
2022/01/03 07:25:37;;;;;;;1.75;0.63;;;;;;;26.13;34.02;96720.91;5010512;28;20031;-61
2022/01/03 07:28:03;;;;;;;2.67;0.90;;;;;;;26.13;34.03;96714.78;4998798;28;20033;-60
2022/01/03 07:30:28;;;;;;;2.42;0.90;;;;;;;26.13;34.02;96712.16;4978441;28;21029;-63
2022/01/03 07:32:54;;;;;;;6.60;1.13;;;;;;;26.13;34.16;96718.25;4994097;28;20561;-61
2022/01/03 07:35:19;;;;;;;5.85;0.90;;;;;;;26.12;34.10;96713.91;4997167;28;20029;-62
2022/01/03 07:37:45;;;;;;;16.83;2.13;;;;;;;26.13;33.14;96717.41;4996072;28;20602;-62
2022/01/03 07:40:10;;;;;;;12.70;2.00;;;;;;;26.10;32.22;96711.38;5001258;28;20041;-62
2022/01/03 07:42:36;;;;;;;6.20;1.60;;;;;;;26.07;32.38;96710.72;4998097;28;20040;-60
2022/01/03 07:45:01;;;;;;;11.70;2.00;;;;;;;26.05;32.09;96704.72;5002446;28;20025;-61
2022/01/03 07:47:27;;;;;;;11.60;1.63;;;;;;;26.01;32.12;96711.88;4997903;28;20507;-62
2022/01/03 07:49:52;;;;;;;6.78;2.28;;;;;;;26.00;32.26;96704.94;4985853;28;20060;-60
2022/01/03 07:52:17;;;;;;;9.77;2.10;;;;;;;25.98;32.46;96705.97;4997486;28;20064;-61
2022/01/03 07:54:43;;;;;;;11.00;2.20;;;;;;;25.93;32.86;96693.13;4997124;28;20115;-61
2022/01/03 07:57:08;;;;;;;8.70;2.25;;;;;;;25.97;32.90;96705.13;4997073;28;20037;-61
2022/01/03 07:59:34;;;;;;;9.90;2.03;;;;;;;25.98;32.66;96706.84;4998402;28;20045;-60
2022/01/03 08:01:59;;;;;;;8.07;2.30;;;;;;;25.98;32.64;96691.06;4996559;28;20039;-61
2022/01/03 08:04:25;;;;;;;7.70;2.47;;;;;;;25.98;32.66;96696.31;4990269;28;21238;-60
2022/01/03 08:06:51;;;;;;;5.93;2.20;;;;;;;26.00;32.55;96698.88;4995438;28;20033;-62
2022/01/03 08:09:16;;;;;;;5.60;2.10;;;;;;;26.00;32.58;96691.00;4999231;28;20127;-61
2022/01/03 08:11:42;;;;;;;5.90;2.30;;;;;;;26.00;32.73;96691.81;4997560;28;20144;-61
2022/01/03 08:14:07;;;;;;;5.43;1.90;;;;;;;26.00;32.62;96699.69;4996183;28;20973;-62
2022/01/03 08:16:32;;;;;;;6.88;2.00;;;;;;;26.01;33.05;96700.56;4994605;28;20080;-61
2022/01/03 08:18:58;;;;;;;8.73;2.30;;;;;;;26.00;33.00;96697.06;4999436;28;20056;-61
2022/01/03 08:21:23;;;;;;;18.40;2.70;;;;;;;26.01;33.29;96690.06;4981626;28;20074;-60
2022/01/03 08:23:49;;;;;;;10.10;2.40;;;;;;;26.02;33.04;96692.59;4997862;28;20030;-62
2022/01/03 08:26:14;;;;;;;4.60;2.05;;;;;;;26.01;33.12;96701.38;4996206;28;20032;-61
2022/01/03 08:28:40;;;;;;;8.13;2.50;;;;;;;26.02;32.97;96697.84;5000819;28;20635;-61
2022/01/03 08:31:05;;;;;;;11.20;2.05;;;;;;;26.03;33.07;96690.81;5000153;28;20025;-62
2022/01/03 08:33:30;;;;;;;6.38;2.50;;;;;;;26.04;33.03;96692.50;5001366;28;20049;-60
2022/01/03 08:35:57;;;;;;;36.25;2.58;;;;;;;26.03;33.31;96694.28;4999141;28;20045;-60
2022/01/03 08:38:23;;;;;;;35.20;2.47;;;;;;;26.02;33.66;96703.09;5001080;28;20030;-61
2022/01/03 08:40:48;;;;;;;20.25;2.00;;;;;;;26.04;33.76;96706.47;4995138;28;20072;-62
2022/01/03 08:43:13;;;;;;;20.85;2.20;;;;;;;26.02;33.21;96699.63;4998998;28;20084;-61
2022/01/03 08:45:39;;;;;;;14.07;2.33;;;;;;;26.01;32.51;96706.63;5000087;28;20026;-63
2022/01/03 08:48:04;;;;;;;4.07;1.70;;;;;;;25.99;32.36;96703.25;4999665;28;20025;-63
2022/01/03 08:50:30;;;;;;;8.50;2.38;;;;;;;25.97;32.14;96710.38;4999984;28;20138;-61
2022/01/03 08:52:55;;;;;;;8.60;2.15;;;;;;;25.95;32.10;96707.00;4999770;28;20039;-61
2022/01/03 08:55:21;;;;;;;14.27;1.95;;;;;;;25.93;32.26;96699.19;4998671;28;20540;-61
2022/01/03 08:57:51;;;;;;;10.85;2.20;;;;;;;25.92;32.12;96708.00;4993987;28;20784;-61
2022/01/03 09:00:17;;;;;;;6.93;2.35;;;;;;;25.92;31.77;96707.16;5001035;28;20033;-61
2022/01/03 09:02:42;;;;;;;23.00;2.25;;;;;;;25.88;30.62;96710.88;4997719;28;20124;-62
2022/01/03 09:05:08;;;;;;;11.10;2.33;;;;;;;25.78;30.51;96690.38;4997677;28;20400;-61
2022/01/03 09:07:33;;;;;;;17.67;2.38;;;;;;;25.79;30.43;96707.84;5001825;28;20037;-62
2022/01/03 09:09:59;;;;;;;5.50;2.03;;;;;;;25.73;30.32;96697.66;4999197;28;20063;-61
2022/01/03 09:12:24;;;;;;;10.05;2.17;;;;;;;25.68;30.20;96700.56;4997352;28;20037;-62
2022/01/03 09:14:49;;;;;;;10.15;2.10;;;;;;;25.62;30.25;96705.28;4997965;28;20041;-60
2022/01/03 09:17:15;;;;;;;7.40;1.73;;;;;;;25.59;30.33;96705.44;5002183;28;20404;-63
2022/01/03 09:19:40;;;;;;;7.97;2.20;;;;;;;25.53;30.43;96704.81;4999737;28;20757;-60
2022/01/03 09:22:12;;;;;;;14.82;2.88;;;;;;;25.49;30.32;96700.66;4997000;28;20045;-60
2022/01/03 09:28:48;;;;;;;6.15;2.17;;;;;;;25.45;30.34;96693.88;4995685;28;20037;-60
2022/01/03 09:30:23;;;;;;;13.60;2.30;;;;;;;25.36;29.98;96699.63;4999077;28;20141;-63
2022/01/03 09:32:48;;;;;;;12.40;2.10;;;;;;;25.32;29.86;96693.66;5001774;28;20029;-60
2022/01/03 09:35:13;;;;;;;6.93;2.08;;;;;;;25.27;29.97;96680.81;4992202;28;20037;-60
2022/01/03 09:37:40;;;;;;;19.80;2.13;;;;;;;25.24;30.17;96688.00;4996726;28;20060;-60
2022/01/03 09:40:06;;;;;;;7.47;1.98;;;;;;;25.22;30.19;96689.84;4999298;28;20036;-61
2022/01/03 09:42:31;;;;;;;11.00;2.50;;;;;;;25.18;30.17;96691.78;5002430;28;20033;-61
2022/01/03 09:44:58;;;;;;;7.00;1.65;;;;;;;25.16;30.15;96678.75;4998160;28;20546;-60
2022/01/03 09:47:24;;;;;;;10.43;2.42;;;;;;;25.14;30.08;96677.13;4999356;28;20099;-61
2022/01/03 09:49:49;;;;;;;10.15;1.83;;;;;;;25.13;30.14;96678.91;4982213;28;20029;-62
2022/01/03 09:52:16;;;;;;;8.65;2.22;;;;;;;25.11;30.09;96672.91;4996030;28;20036;-61
2022/01/03 09:54:41;;;;;;;9.15;1.90;;;;;;;25.10;30.01;96683.47;4996138;28;20030;-62
2022/01/03 09:57:07;;;;;;;7.13;1.90;;;;;;;25.07;29.94;96684.47;4997374;28;20025;-62
2022/01/03 09:59:32;;;;;;;5.07;1.83;;;;;;;25.05;29.67;96681.94;4993317;28;20535;-64
2022/01/03 10:01:58;;;;;;;5.43;2.10;;;;;;;24.99;28.35;96670.91;4995907;28;20033;-62
2022/01/03 10:04:24;;;;;;;12.18;1.92;;;;;;;24.88;27.49;96674.94;4997431;28;20034;-61
2022/01/03 10:06:49;;;;;;;5.30;1.90;;;;;;;24.78;27.45;96682.38;4995822;28;20052;-60
2022/01/03 10:09:15;;;;;;;9.80;1.85;;;;;;;24.71;27.41;96678.38;4998599;28;20101;-60
2022/01/03 10:11:40;;;;;;;44.05;3.08;;;;;;;24.67;28.26;96676.81;4997543;28;20025;-60
2022/01/03 10:14:06;;;;;;;16.13;2.17;;;;;;;24.66;28.74;96685.63;4998514;28;20087;-59
2022/01/03 10:16:31;;;;;;;14.27;2.80;;;;;;;24.68;28.98;96668.06;5002374;28;20034;-60
2022/01/03 10:18:57;;;;;;;8.80;1.85;;;;;;;24.70;29.35;96681.91;4999215;28;20034;-60
2022/01/03 10:21:34;;;;;;;25.27;2.40;;;;;;;24.75;29.69;96677.28;5000238;28;20029;-61
2022/01/03 10:24:00;;;;;;;6.57;1.90;;;;;;;24.79;29.63;96681.47;4999860;28;20103;-61
2022/01/03 10:26:25;;;;;;;8.07;1.75;;;;;;;24.83;29.87;96676.94;4997229;28;20889;-61
2022/01/03 10:28:51;;;;;;;11.95;1.73;;;;;;;24.88;30.06;96668.84;5003618;28;20036;-59
2022/01/03 10:31:18;;;;;;;4.93;1.92;;;;;;;24.91;30.07;96673.94;4982068;28;20549;-61
2022/01/03 10:33:44;;;;;;;6.25;1.80;;;;;;;24.97;30.28;96672.78;4998454;28;20033;-60
2022/01/03 10:36:31;;;;;;;8.73;2.15;;;;;;;25.03;30.17;96672.44;4987140;28;20026;-59
2022/01/03 10:38:58;;;;;;;6.07;2.22;;;;;;;25.06;30.24;96672.31;5001202;28;20119;-60
2022/01/03 10:41:24;;;;;;;7.63;1.77;;;;;;;25.11;30.26;96670.28;5001627;28;20017;-61
2022/01/03 10:43:54;;;;;;;33.03;2.17;;;;;;;25.15;30.55;96660.47;5004924;28;20044;-60
2022/01/03 10:46:26;;;;;;;5.53;1.65;;;;;;;25.19;30.63;96662.00;5000096;28;20033;-61
2022/01/03 10:48:53;;;;;;;5.32;1.90;;;;;;;25.23;30.59;96662.69;5003679;28;20381;-60
2022/01/03 10:51:26;;;;;;;6.68;1.88;;;;;;;25.26;30.74;96652.03;5002976;28;20025;-60
2022/01/03 10:53:54;;;;;;;6.45;1.60;;;;;;;25.30;30.66;96659.69;5001557;28;20033;-61
2022/01/03 10:56:42;;;;;;;4.80;1.70;;;;;;;25.35;30.71;96645.47;5002039;28;21120;-61
2022/01/03 10:59:21;;;;;;;4.88;1.55;;;;;;;25.38;30.82;96640.03;5004358;28;20488;-61
2022/01/03 11:01:52;;;;;;;10.98;1.92;;;;;;;25.41;30.95;96639.88;5003530;28;20025;-59
2022/01/03 11:04:51;;;;;;;15.35;2.03;;;;;;;25.44;31.11;96634.47;5001923;28;20033;-61
2022/01/03 11:13:09;;;;;;;15.98;2.20;;;;;;;25.52;31.05;96623.56;5006706;28;20044;-60
2022/01/03 11:15:35;;;;;;;38.42;2.55;;;;;;;25.52;31.17;96621.75;5005562;28;20029;-61
2022/01/03 11:18:11;;;;;;;8.90;1.83;;;;;;;25.54;31.22;96619.06;5001539;28;20852;-63
2022/01/03 11:20:37;;;;;;;26.75;2.15;;;;;;;25.56;31.21;96623.31;5006029;28;20025;-59
2022/01/03 11:23:02;;;;;;;21.92;3.22;;;;;;;25.57;31.24;96625.03;5005891;28;20656;-59
2022/01/03 11:25:32;;;;;;;14.25;1.67;;;;;;;25.58;31.51;96625.88;5004999;28;20026;-60
2022/01/03 11:27:58;;;;;;;9.35;2.13;;;;;;;25.59;31.39;96616.22;5003492;28;20111;-61
2022/01/03 11:30:23;;;;;;;7.10;1.60;;;;;;;25.61;31.38;96619.59;5001803;28;20040;-61
2022/01/03 11:32:49;;;;;;;6.85;2.13;;;;;;;25.60;31.61;96604.78;4986912;28;20055;-60
2022/01/03 11:35:14;;;;;;;8.25;1.83;;;;;;;25.63;31.52;96620.38;5004190;28;20036;-60
2022/01/03 11:37:40;;;;;;;5.90;2.00;;;;;;;25.63;31.60;96617.75;5002268;28;20104;-61
2022/01/03 11:40:06;;;;;;;4.63;1.58;;;;;;;25.65;31.53;96613.25;5003341;28;20041;-61
2022/01/03 11:42:32;;;;;;;5.75;1.70;;;;;;;25.65;31.64;96626.38;4984127;28;20037;-60
2022/01/03 11:44:58;;;;;;;7.20;1.75;;;;;;;25.67;31.62;96606.16;5012243;28;20033;-61
2022/01/03 11:47:24;;;;;;;8.93;1.30;;;;;;;25.68;31.77;96607.84;5002654;28;20060;-61
2022/01/03 11:49:50;;;;;;;3.80;1.40;;;;;;;25.65;31.74;96589.63;4985269;28;20029;-61